sensor_id;sensor_type;location;lat;lon;timestamp;temperature;humidity
8896;DHT22;4484;48.928;10.066;2023-08-08T00:02:12;11.00;99.90
8896;DHT22;4484;48.928;10.066;2023-08-08T00:04:39;11.00;99.90
8896;DHT22;4484;48.928;10.066;2023-08-08T00:07:08;11.00;99.90
8896;DHT22;4484;48.928;10.066;2023-08-08T00:09:35;11.00;99.90
8896;DHT22;4484;48.928;10.066;2023-08-08T00:12:02;11.00;99.90
8896;DHT22;4484;48.928;10.066;2023-08-08T00:14:29;11.00;99.90
8896;DHT22;4484;48.928;10.066;2023-08-08T00:16:56;10.90;99.90
8896;DHT22;4484;48.928;10.066;2023-08-08T00:19:23;10.90;99.90
8896;DHT22;4484;48.928;10.066;2023-08-08T00:21:50;10.90;99.90
8896;DHT22;4484;48.928;10.066;2023-08-08T00:24:17;10.80;99.90
8896;DHT22;4484;48.928;10.066;2023-08-08T00:26:44;10.80;99.90
8896;DHT22;4484;48.928;10.066;2023-08-08T00:29:11;10.70;99.90
8896;DHT22;4484;48.928;10.066;2023-08-08T00:31:38;10.70;99.90
8896;DHT22;4484;48.928;10.066;2023-08-08T00:34:05;10.70;99.90
8896;DHT22;4484;48.928;10.066;2023-08-08T00:36:32;10.60;99.90
8896;DHT22;4484;48.928;10.066;2023-08-08T00:38:59;10.60;99.90
8896;DHT22;4484;48.928;10.066;2023-08-08T00:41:26;10.60;99.90
8896;DHT22;4484;48.928;10.066;2023-08-08T00:43:53;10.50;99.90
8896;DHT22;4484;48.928;10.066;2023-08-08T00:46:21;10.60;99.90
8896;DHT22;4484;48.928;10.066;2023-08-08T00:48:51;10.60;99.90
8896;DHT22;4484;48.928;10.066;2023-08-08T00:51:20;10.50;99.90
8896;DHT22;4484;48.928;10.066;2023-08-08T00:53:48;10.60;99.90
8896;DHT22;4484;48.928;10.066;2023-08-08T00:56:16;10.60;99.90
8896;DHT22;4484;48.928;10.066;2023-08-08T00:58:44;10.60;99.90
8896;DHT22;4484;48.928;10.066;2023-08-08T01:01:17;10.60;99.90
8896;DHT22;4484;48.928;10.066;2023-08-08T01:03:45;10.60;99.90
8896;DHT22;4484;48.928;10.066;2023-08-08T01:09:05;10.60;99.90
8896;DHT22;4484;48.928;10.066;2023-08-08T01:11:36;10.70;99.90
8896;DHT22;4484;48.928;10.066;2023-08-08T01:14:04;10.70;99.90
8896;DHT22;4484;48.928;10.066;2023-08-08T01:16:33;10.60;99.90
8896;DHT22;4484;48.928;10.066;2023-08-08T01:19:00;10.60;99.90
8896;DHT22;4484;48.928;10.066;2023-08-08T01:21:29;10.70;99.90
8896;DHT22;4484;48.928;10.066;2023-08-08T01:24:13;10.70;99.90
8896;DHT22;4484;48.928;10.066;2023-08-08T01:26:40;10.70;99.90
8896;DHT22;4484;48.928;10.066;2023-08-08T01:29:07;10.70;99.90
8896;DHT22;4484;48.928;10.066;2023-08-08T01:31:34;10.70;99.90
8896;DHT22;4484;48.928;10.066;2023-08-08T01:34:02;10.70;99.90
8896;DHT22;4484;48.928;10.066;2023-08-08T01:36:54;10.70;99.90
8896;DHT22;4484;48.928;10.066;2023-08-08T01:39:22;10.70;99.90
8896;DHT22;4484;48.928;10.066;2023-08-08T01:41:54;10.70;99.90
8896;DHT22;4484;48.928;10.066;2023-08-08T01:44:21;10.70;99.90
8896;DHT22;4484;48.928;10.066;2023-08-08T01:46:53;10.60;99.90
8896;DHT22;4484;48.928;10.066;2023-08-08T01:49:20;10.60;99.90
8896;DHT22;4484;48.928;10.066;2023-08-08T01:51:48;10.60;99.90
8896;DHT22;4484;48.928;10.066;2023-08-08T01:54:18;10.60;99.90
8896;DHT22;4484;48.928;10.066;2023-08-08T01:56:45;10.60;99.90
8896;DHT22;4484;48.928;10.066;2023-08-08T01:59:11;10.60;99.90
8896;DHT22;4484;48.928;10.066;2023-08-08T02:01:42;10.60;99.90
8896;DHT22;4484;48.928;10.066;2023-08-08T02:04:09;10.60;99.90
8896;DHT22;4484;48.928;10.066;2023-08-08T02:06:36;10.60;99.90
8896;DHT22;4484;48.928;10.066;2023-08-08T02:09:03;10.60;99.90
8896;DHT22;4484;48.928;10.066;2023-08-08T02:11:30;10.60;99.90
8896;DHT22;4484;48.928;10.066;2023-08-08T02:13:58;10.60;99.90
8896;DHT22;4484;48.928;10.066;2023-08-08T02:16:25;10.60;99.90
8896;DHT22;4484;48.928;10.066;2023-08-08T02:18:52;10.60;99.90
8896;DHT22;4484;48.928;10.066;2023-08-08T02:21:19;10.60;99.90
8896;DHT22;4484;48.928;10.066;2023-08-08T02:23:48;10.60;99.90
8896;DHT22;4484;48.928;10.066;2023-08-08T02:26:15;10.60;99.90
8896;DHT22;4484;48.928;10.066;2023-08-08T02:28:42;10.50;99.90
8896;DHT22;4484;48.928;10.066;2023-08-08T02:31:10;10.60;99.90
8896;DHT22;4484;48.928;10.066;2023-08-08T02:33:37;10.60;99.90
8896;DHT22;4484;48.928;10.066;2023-08-08T02:36:04;10.60;99.90
8896;DHT22;4484;48.928;10.066;2023-08-08T02:38:31;10.60;99.90
8896;DHT22;4484;48.928;10.066;2023-08-08T02:40:58;10.60;99.90
8896;DHT22;4484;48.928;10.066;2023-08-08T02:43:25;10.60;99.90
8896;DHT22;4484;48.928;10.066;2023-08-08T02:45:52;10.60;99.90
8896;DHT22;4484;48.928;10.066;2023-08-08T02:48:19;10.60;99.90
8896;DHT22;4484;48.928;10.066;2023-08-08T02:50:46;10.70;99.90
8896;DHT22;4484;48.928;10.066;2023-08-08T02:53:14;10.70;99.90
8896;DHT22;4484;48.928;10.066;2023-08-08T02:55:45;10.70;99.90
8896;DHT22;4484;48.928;10.066;2023-08-08T02:58:12;10.70;99.90
8896;DHT22;4484;48.928;10.066;2023-08-08T03:00:39;10.70;99.90
8896;DHT22;4484;48.928;10.066;2023-08-08T03:03:09;10.70;99.90
8896;DHT22;4484;48.928;10.066;2023-08-08T03:05:37;10.70;99.90
8896;DHT22;4484;48.928;10.066;2023-08-08T03:08:04;10.80;99.90
8896;DHT22;4484;48.928;10.066;2023-08-08T03:10:32;10.80;99.90
8896;DHT22;4484;48.928;10.066;2023-08-08T03:12:59;10.80;99.90
8896;DHT22;4484;48.928;10.066;2023-08-08T03:15:27;10.80;99.90
8896;DHT22;4484;48.928;10.066;2023-08-08T03:17:54;10.80;99.90
8896;DHT22;4484;48.928;10.066;2023-08-08T03:20:22;10.90;99.90
8896;DHT22;4484;48.928;10.066;2023-08-08T03:22:50;10.90;99.90
8896;DHT22;4484;48.928;10.066;2023-08-08T03:25:17;10.90;99.90
8896;DHT22;4484;48.928;10.066;2023-08-08T03:27:44;10.90;99.90
8896;DHT22;4484;48.928;10.066;2023-08-08T03:30:13;10.80;99.90
8896;DHT22;4484;48.928;10.066;2023-08-08T03:32:42;10.80;99.90
8896;DHT22;4484;48.928;10.066;2023-08-08T03:35:09;10.90;99.90
8896;DHT22;4484;48.928;10.066;2023-08-08T03:37:39;10.80;99.90
8896;DHT22;4484;48.928;10.066;2023-08-08T03:40:06;10.80;99.90
8896;DHT22;4484;48.928;10.066;2023-08-08T03:42:34;10.80;99.90
8896;DHT22;4484;48.928;10.066;2023-08-08T03:45:02;10.80;99.90
8896;DHT22;4484;48.928;10.066;2023-08-08T03:47:29;10.80;99.90
8896;DHT22;4484;48.928;10.066;2023-08-08T03:49:56;10.80;99.90
8896;DHT22;4484;48.928;10.066;2023-08-08T03:52:24;10.80;99.90
8896;DHT22;4484;48.928;10.066;2023-08-08T03:54:52;10.80;99.90
8896;DHT22;4484;48.928;10.066;2023-08-08T03:57:21;10.80;99.90
8896;DHT22;4484;48.928;10.066;2023-08-08T03:59:48;10.80;99.90
8896;DHT22;4484;48.928;10.066;2023-08-08T04:02:15;10.80;99.90
8896;DHT22;4484;48.928;10.066;2023-08-08T04:04:42;10.80;99.90
8896;DHT22;4484;48.928;10.066;2023-08-08T04:07:09;10.80;99.90
8896;DHT22;4484;48.928;10.066;2023-08-08T04:09:36;10.80;99.90
8896;DHT22;4484;48.928;10.066;2023-08-08T04:12:03;10.80;99.90
8896;DHT22;4484;48.928;10.066;2023-08-08T04:14:30;10.70;99.90
8896;DHT22;4484;48.928;10.066;2023-08-08T04:16:58;10.70;99.90
8896;DHT22;4484;48.928;10.066;2023-08-08T04:19:25;10.70;99.90
8896;DHT22;4484;48.928;10.066;2023-08-08T04:21:52;10.60;99.90
8896;DHT22;4484;48.928;10.066;2023-08-08T04:24:19;10.60;99.90
8896;DHT22;4484;48.928;10.066;2023-08-08T04:26:46;10.60;99.90
8896;DHT22;4484;48.928;10.066;2023-08-08T04:29:13;10.60;99.90
8896;DHT22;4484;48.928;10.066;2023-08-08T04:31:40;10.60;99.90
8896;DHT22;4484;48.928;10.066;2023-08-08T04:34:07;10.60;99.90
8896;DHT22;4484;48.928;10.066;2023-08-08T04:36:34;10.60;99.90
8896;DHT22;4484;48.928;10.066;2023-08-08T04:39:01;10.60;99.90
8896;DHT22;4484;48.928;10.066;2023-08-08T04:41:29;10.60;99.90
8896;DHT22;4484;48.928;10.066;2023-08-08T04:43:56;10.60;99.90
8896;DHT22;4484;48.928;10.066;2023-08-08T04:46:23;10.60;99.90
8896;DHT22;4484;48.928;10.066;2023-08-08T04:48:50;10.60;99.90
8896;DHT22;4484;48.928;10.066;2023-08-08T04:51:17;10.60;99.90
8896;DHT22;4484;48.928;10.066;2023-08-08T04:53:44;10.60;99.90
8896;DHT22;4484;48.928;10.066;2023-08-08T04:56:11;10.70;99.90
8896;DHT22;4484;48.928;10.066;2023-08-08T04:58:38;10.70;99.90
8896;DHT22;4484;48.928;10.066;2023-08-08T05:01:05;10.70;99.90
8896;DHT22;4484;48.928;10.066;2023-08-08T05:03:32;10.80;99.90
8896;DHT22;4484;48.928;10.066;2023-08-08T05:05:59;10.80;99.90
8896;DHT22;4484;48.928;10.066;2023-08-08T05:08:26;10.90;99.90
8896;DHT22;4484;48.928;10.066;2023-08-08T05:10:53;10.90;99.90
8896;DHT22;4484;48.928;10.066;2023-08-08T05:13:20;11.00;99.90
8896;DHT22;4484;48.928;10.066;2023-08-08T05:15:47;11.10;99.90
8896;DHT22;4484;48.928;10.066;2023-08-08T05:18:14;11.10;99.90
8896;DHT22;4484;48.928;10.066;2023-08-08T05:20:41;11.20;99.90
8896;DHT22;4484;48.928;10.066;2023-08-08T05:23:08;11.30;99.90
8896;DHT22;4484;48.928;10.066;2023-08-08T05:25:35;11.30;99.90
8896;DHT22;4484;48.928;10.066;2023-08-08T05:28:02;11.40;99.90
8896;DHT22;4484;48.928;10.066;2023-08-08T05:30:29;11.50;99.90
8896;DHT22;4484;48.928;10.066;2023-08-08T05:32:56;11.50;99.90
8896;DHT22;4484;48.928;10.066;2023-08-08T05:35:23;11.50;99.90
8896;DHT22;4484;48.928;10.066;2023-08-08T05:37:50;11.60;99.90
8896;DHT22;4484;48.928;10.066;2023-08-08T05:40:17;11.60;99.90
8896;DHT22;4484;48.928;10.066;2023-08-08T05:42:44;11.60;99.90
8896;DHT22;4484;48.928;10.066;2023-08-08T05:45:11;11.60;99.90
8896;DHT22;4484;48.928;10.066;2023-08-08T05:47:38;11.70;99.90
8896;DHT22;4484;48.928;10.066;2023-08-08T05:50:06;11.70;99.90
8896;DHT22;4484;48.928;10.066;2023-08-08T05:52:33;11.80;99.90
8896;DHT22;4484;48.928;10.066;2023-08-08T05:55:00;11.80;99.90
8896;DHT22;4484;48.928;10.066;2023-08-08T05:57:27;11.80;99.90
8896;DHT22;4484;48.928;10.066;2023-08-08T05:59:54;11.90;99.90
8896;DHT22;4484;48.928;10.066;2023-08-08T06:02:21;11.90;99.90
8896;DHT22;4484;48.928;10.066;2023-08-08T06:04:48;12.00;99.90
8896;DHT22;4484;48.928;10.066;2023-08-08T06:07:15;12.10;99.90
8896;DHT22;4484;48.928;10.066;2023-08-08T06:09:42;12.20;99.90
8896;DHT22;4484;48.928;10.066;2023-08-08T06:12:09;12.30;99.90
8896;DHT22;4484;48.928;10.066;2023-08-08T06:14:36;12.50;99.90
8896;DHT22;4484;48.928;10.066;2023-08-08T06:17:03;12.60;99.90
8896;DHT22;4484;48.928;10.066;2023-08-08T06:19:30;12.70;99.90
8896;DHT22;4484;48.928;10.066;2023-08-08T06:21:58;12.90;99.90
8896;DHT22;4484;48.928;10.066;2023-08-08T06:24:25;13.10;99.90
8896;DHT22;4484;48.928;10.066;2023-08-08T06:26:52;13.20;99.90
8896;DHT22;4484;48.928;10.066;2023-08-08T06:29:19;13.40;99.90
8896;DHT22;4484;48.928;10.066;2023-08-08T06:31:46;13.60;99.90
8896;DHT22;4484;48.928;10.066;2023-08-08T06:34:13;13.80;99.90
8896;DHT22;4484;48.928;10.066;2023-08-08T06:36:41;13.90;99.90
8896;DHT22;4484;48.928;10.066;2023-08-08T06:39:08;14.10;99.90
8896;DHT22;4484;48.928;10.066;2023-08-08T06:41:35;14.30;99.90
8896;DHT22;4484;48.928;10.066;2023-08-08T06:44:02;14.50;99.90
8896;DHT22;4484;48.928;10.066;2023-08-08T06:46:29;14.70;99.90
8896;DHT22;4484;48.928;10.066;2023-08-08T06:48:56;14.90;99.90
8896;DHT22;4484;48.928;10.066;2023-08-08T06:51:25;15.10;99.90
8896;DHT22;4484;48.928;10.066;2023-08-08T06:53:52;15.20;99.90
8896;DHT22;4484;48.928;10.066;2023-08-08T06:56:19;15.40;99.90
8896;DHT22;4484;48.928;10.066;2023-08-08T06:58:46;15.70;99.90
8896;DHT22;4484;48.928;10.066;2023-08-08T07:01:13;15.90;99.90
8896;DHT22;4484;48.928;10.066;2023-08-08T07:03:40;16.20;99.90
8896;DHT22;4484;48.928;10.066;2023-08-08T07:06:07;16.30;99.90
8896;DHT22;4484;48.928;10.066;2023-08-08T07:08:35;16.50;99.90
8896;DHT22;4484;48.928;10.066;2023-08-08T07:11:02;16.70;99.90
8896;DHT22;4484;48.928;10.066;2023-08-08T07:13:29;16.80;99.90
8896;DHT22;4484;48.928;10.066;2023-08-08T07:15:56;17.10;99.90
8896;DHT22;4484;48.928;10.066;2023-08-08T07:18:23;17.30;99.90
8896;DHT22;4484;48.928;10.066;2023-08-08T07:20:50;17.50;99.90
8896;DHT22;4484;48.928;10.066;2023-08-08T07:23:17;17.80;99.90
8896;DHT22;4484;48.928;10.066;2023-08-08T07:25:45;18.00;99.90
8896;DHT22;4484;48.928;10.066;2023-08-08T07:28:12;18.10;99.90
8896;DHT22;4484;48.928;10.066;2023-08-08T07:30:41;18.30;99.90
8896;DHT22;4484;48.928;10.066;2023-08-08T07:33:08;18.40;99.90
8896;DHT22;4484;48.928;10.066;2023-08-08T07:35:35;18.50;99.90
8896;DHT22;4484;48.928;10.066;2023-08-08T07:38:03;18.50;99.90
8896;DHT22;4484;48.928;10.066;2023-08-08T07:40:30;18.50;99.90
8896;DHT22;4484;48.928;10.066;2023-08-08T07:42:57;18.70;99.90
8896;DHT22;4484;48.928;10.066;2023-08-08T07:45:23;18.80;99.90
8896;DHT22;4484;48.928;10.066;2023-08-08T07:47:50;19.10;99.90
8896;DHT22;4484;48.928;10.066;2023-08-08T07:50:17;19.30;99.90
8896;DHT22;4484;48.928;10.066;2023-08-08T07:52:45;19.50;99.90
8896;DHT22;4484;48.928;10.066;2023-08-08T07:55:12;19.70;99.90
8896;DHT22;4484;48.928;10.066;2023-08-08T07:57:39;20.00;99.90
8896;DHT22;4484;48.928;10.066;2023-08-08T08:00:07;20.10;99.90
8896;DHT22;4484;48.928;10.066;2023-08-08T08:02:42;20.10;99.90
8896;DHT22;4484;48.928;10.066;2023-08-08T08:05:09;20.30;99.90
8896;DHT22;4484;48.928;10.066;2023-08-08T08:07:37;20.50;99.90
8896;DHT22;4484;48.928;10.066;2023-08-08T08:10:08;20.60;99.90
8896;DHT22;4484;48.928;10.066;2023-08-08T08:12:36;20.70;99.90
8896;DHT22;4484;48.928;10.066;2023-08-08T08:15:03;20.80;99.90
8896;DHT22;4484;48.928;10.066;2023-08-08T08:17:31;20.90;99.90
8896;DHT22;4484;48.928;10.066;2023-08-08T08:19:58;21.10;99.90
8896;DHT22;4484;48.928;10.066;2023-08-08T08:22:25;21.20;99.90
8896;DHT22;4484;48.928;10.066;2023-08-08T08:24:52;21.30;99.90
8896;DHT22;4484;48.928;10.066;2023-08-08T08:27:19;21.10;99.90
8896;DHT22;4484;48.928;10.066;2023-08-08T08:29:46;21.00;99.90
8896;DHT22;4484;48.928;10.066;2023-08-08T08:32:13;21.00;99.90
8896;DHT22;4484;48.928;10.066;2023-08-08T08:34:40;21.00;99.90
8896;DHT22;4484;48.928;10.066;2023-08-08T08:37:07;20.90;99.90
8896;DHT22;4484;48.928;10.066;2023-08-08T08:39:34;20.90;99.90
8896;DHT22;4484;48.928;10.066;2023-08-08T08:42:02;21.00;99.90
8896;DHT22;4484;48.928;10.066;2023-08-08T08:44:32;21.20;99.90
8896;DHT22;4484;48.928;10.066;2023-08-08T08:47:03;21.40;99.90
8896;DHT22;4484;48.928;10.066;2023-08-08T08:49:31;21.70;99.90
8896;DHT22;4484;48.928;10.066;2023-08-08T08:51:59;21.60;99.90
8896;DHT22;4484;48.928;10.066;2023-08-08T08:54:29;21.50;99.90
8896;DHT22;4484;48.928;10.066;2023-08-08T08:56:56;21.30;99.90
8896;DHT22;4484;48.928;10.066;2023-08-08T08:59:24;21.00;99.90
8896;DHT22;4484;48.928;10.066;2023-08-08T09:01:52;20.90;99.90
8896;DHT22;4484;48.928;10.066;2023-08-08T09:04:20;20.80;99.90
8896;DHT22;4484;48.928;10.066;2023-08-08T09:06:50;20.70;99.90
8896;DHT22;4484;48.928;10.066;2023-08-08T09:09:17;20.40;99.90
8896;DHT22;4484;48.928;10.066;2023-08-08T09:11:53;20.40;99.90
8896;DHT22;4484;48.928;10.066;2023-08-08T09:14:25;20.30;99.90
8896;DHT22;4484;48.928;10.066;2023-08-08T09:16:53;20.50;99.90
8896;DHT22;4484;48.928;10.066;2023-08-08T09:19:21;20.70;99.90
8896;DHT22;4484;48.928;10.066;2023-08-08T09:21:49;21.00;99.90
8896;DHT22;4484;48.928;10.066;2023-08-08T09:24:17;21.20;99.90
8896;DHT22;4484;48.928;10.066;2023-08-08T09:26:44;21.50;99.90
8896;DHT22;4484;48.928;10.066;2023-08-08T09:29:13;21.70;99.90
8896;DHT22;4484;48.928;10.066;2023-08-08T09:31:41;21.70;99.90
8896;DHT22;4484;48.928;10.066;2023-08-08T09:34:08;21.70;99.90
8896;DHT22;4484;48.928;10.066;2023-08-08T09:36:35;21.80;99.90
8896;DHT22;4484;48.928;10.066;2023-08-08T09:39:04;21.80;99.90
8896;DHT22;4484;48.928;10.066;2023-08-08T09:41:32;21.70;99.90
8896;DHT22;4484;48.928;10.066;2023-08-08T09:43:59;21.90;99.90
8896;DHT22;4484;48.928;10.066;2023-08-08T09:46:30;21.70;99.90
8896;DHT22;4484;48.928;10.066;2023-08-08T09:48:58;21.60;99.90
8896;DHT22;4484;48.928;10.066;2023-08-08T09:51:26;21.40;99.90
8896;DHT22;4484;48.928;10.066;2023-08-08T09:53:55;21.30;99.90
8896;DHT22;4484;48.928;10.066;2023-08-08T09:56:26;21.50;99.90
8896;DHT22;4484;48.928;10.066;2023-08-08T09:58:53;21.80;99.90
8896;DHT22;4484;48.928;10.066;2023-08-08T10:01:20;22.10;99.90
8896;DHT22;4484;48.928;10.066;2023-08-08T10:03:51;22.50;99.90
8896;DHT22;4484;48.928;10.066;2023-08-08T10:06:19;22.40;99.90
8896;DHT22;4484;48.928;10.066;2023-08-08T10:08:46;22.10;99.90
8896;DHT22;4484;48.928;10.066;2023-08-08T10:11:14;21.80;99.90
8896;DHT22;4484;48.928;10.066;2023-08-08T10:13:49;21.70;99.90
8896;DHT22;4484;48.928;10.066;2023-08-08T10:16:17;21.40;99.90
8896;DHT22;4484;48.928;10.066;2023-08-08T10:19:05;21.40;99.90
8896;DHT22;4484;48.928;10.066;2023-08-08T10:21:35;21.40;99.90
8896;DHT22;4484;48.928;10.066;2023-08-08T10:24:07;21.60;99.90
8896;DHT22;4484;48.928;10.066;2023-08-08T10:26:50;21.90;99.90
8896;DHT22;4484;48.928;10.066;2023-08-08T10:29:18;22.10;99.90
8896;DHT22;4484;48.928;10.066;2023-08-08T10:31:53;22.30;99.90
8896;DHT22;4484;48.928;10.066;2023-08-08T10:34:21;22.40;99.80
8896;DHT22;4484;48.928;10.066;2023-08-08T10:36:53;22.50;99.90
8896;DHT22;4484;48.928;10.066;2023-08-08T10:39:21;22.30;99.90
8896;DHT22;4484;48.928;10.066;2023-08-08T10:41:49;22.50;99.90
8896;DHT22;4484;48.928;10.066;2023-08-08T10:44:23;22.60;99.60
8896;DHT22;4484;48.928;10.066;2023-08-08T10:46:52;22.70;99.90
8896;DHT22;4484;48.928;10.066;2023-08-08T10:49:20;22.90;98.00
8896;DHT22;4484;48.928;10.066;2023-08-08T10:51:50;23.00;99.80
8896;DHT22;4484;48.928;10.066;2023-08-08T10:54:23;23.10;99.90
8896;DHT22;4484;48.928;10.066;2023-08-08T10:56:55;23.10;98.90
8896;DHT22;4484;48.928;10.066;2023-08-08T10:59:37;23.20;96.50
8896;DHT22;4484;48.928;10.066;2023-08-08T11:02:04;22.90;95.60
8896;DHT22;4484;48.928;10.066;2023-08-08T11:04:32;22.70;97.00
8896;DHT22;4484;48.928;10.066;2023-08-08T11:07:00;22.70;97.40
8896;DHT22;4484;48.928;10.066;2023-08-08T11:09:27;22.70;98.60
8896;DHT22;4484;48.928;10.066;2023-08-08T11:11:54;22.60;97.20
8896;DHT22;4484;48.928;10.066;2023-08-08T11:14:22;22.50;97.40
8896;DHT22;4484;48.928;10.066;2023-08-08T11:16:50;22.20;94.90
8896;DHT22;4484;48.928;10.066;2023-08-08T11:19:19;22.20;97.10
8896;DHT22;4484;48.928;10.066;2023-08-08T11:21:47;22.10;95.40
8896;DHT22;4484;48.928;10.066;2023-08-08T11:24:14;22.20;96.60
8896;DHT22;4484;48.928;10.066;2023-08-08T11:26:42;22.20;96.20
8896;DHT22;4484;48.928;10.066;2023-08-08T11:29:11;22.30;97.60
8896;DHT22;4484;48.928;10.066;2023-08-08T11:31:39;22.40;98.20
8896;DHT22;4484;48.928;10.066;2023-08-08T11:34:07;22.40;96.90
8896;DHT22;4484;48.928;10.066;2023-08-08T11:36:37;22.50;98.10
8896;DHT22;4484;48.928;10.066;2023-08-08T11:39:04;22.80;97.10
8896;DHT22;4484;48.928;10.066;2023-08-08T11:41:36;23.10;97.20
8896;DHT22;4484;48.928;10.066;2023-08-08T11:44:04;23.30;96.40
8896;DHT22;4484;48.928;10.066;2023-08-08T11:46:31;23.30;94.40
8896;DHT22;4484;48.928;10.066;2023-08-08T11:49:03;23.30;92.60
8896;DHT22;4484;48.928;10.066;2023-08-08T11:51:30;23.20;95.10
8896;DHT22;4484;48.928;10.066;2023-08-08T11:53:59;23.20;93.60
8896;DHT22;4484;48.928;10.066;2023-08-08T11:56:27;23.30;93.30
8896;DHT22;4484;48.928;10.066;2023-08-08T11:58:55;23.10;91.40
8896;DHT22;4484;48.928;10.066;2023-08-08T12:01:24;22.70;92.70
8896;DHT22;4484;48.928;10.066;2023-08-08T12:03:51;22.60;91.10
8896;DHT22;4484;48.928;10.066;2023-08-08T12:06:18;22.70;94.60
8896;DHT22;4484;48.928;10.066;2023-08-08T12:08:47;22.90;93.30
8896;DHT22;4484;48.928;10.066;2023-08-08T12:11:15;23.00;96.10
8896;DHT22;4484;48.928;10.066;2023-08-08T12:13:44;23.10;95.00
8896;DHT22;4484;48.928;10.066;2023-08-08T12:16:12;23.20;95.70
8896;DHT22;4484;48.928;10.066;2023-08-08T12:18:44;23.10;94.60
8896;DHT22;4484;48.928;10.066;2023-08-08T12:21:11;23.30;94.60
8896;DHT22;4484;48.928;10.066;2023-08-08T12:23:38;23.70;94.60
8896;DHT22;4484;48.928;10.066;2023-08-08T12:26:06;23.80;92.50
8896;DHT22;4484;48.928;10.066;2023-08-08T12:28:34;23.80;92.90
8896;DHT22;4484;48.928;10.066;2023-08-08T12:31:01;23.60;91.80
8896;DHT22;4484;48.928;10.066;2023-08-08T12:33:28;23.30;92.00
8896;DHT22;4484;48.928;10.066;2023-08-08T12:35:55;23.20;91.70
8896;DHT22;4484;48.928;10.066;2023-08-08T12:38:22;23.30;93.20
8896;DHT22;4484;48.928;10.066;2023-08-08T12:40:49;23.50;93.80
8896;DHT22;4484;48.928;10.066;2023-08-08T12:43:17;23.70;92.60
8896;DHT22;4484;48.928;10.066;2023-08-08T12:45:45;23.50;89.60
8896;DHT22;4484;48.928;10.066;2023-08-08T12:48:12;23.40;93.10
8896;DHT22;4484;48.928;10.066;2023-08-08T12:50:39;23.30;92.00
8896;DHT22;4484;48.928;10.066;2023-08-08T12:53:07;23.20;91.60
8896;DHT22;4484;48.928;10.066;2023-08-08T12:55:34;23.20;92.50
8896;DHT22;4484;48.928;10.066;2023-08-08T12:58:02;23.10;92.30
8896;DHT22;4484;48.928;10.066;2023-08-08T13:00:30;23.00;92.20
8896;DHT22;4484;48.928;10.066;2023-08-08T13:02:57;23.10;92.00
8896;DHT22;4484;48.928;10.066;2023-08-08T13:05:27;23.20;92.00
8896;DHT22;4484;48.928;10.066;2023-08-08T13:07:54;23.20;91.30
8896;DHT22;4484;48.928;10.066;2023-08-08T13:10:21;23.30;90.60
8896;DHT22;4484;48.928;10.066;2023-08-08T13:12:48;23.50;92.80
8896;DHT22;4484;48.928;10.066;2023-08-08T13:15:15;23.70;90.90
8896;DHT22;4484;48.928;10.066;2023-08-08T13:17:43;23.70;91.50
8896;DHT22;4484;48.928;10.066;2023-08-08T13:20:11;23.80;93.60
8896;DHT22;4484;48.928;10.066;2023-08-08T13:22:39;23.90;93.50
8896;DHT22;4484;48.928;10.066;2023-08-08T13:25:06;23.80;92.00
8896;DHT22;4484;48.928;10.066;2023-08-08T13:27:33;23.80;92.60
8896;DHT22;4484;48.928;10.066;2023-08-08T13:30:01;23.80;92.00
8896;DHT22;4484;48.928;10.066;2023-08-08T13:32:28;23.80;90.20
8896;DHT22;4484;48.928;10.066;2023-08-08T13:34:55;23.40;91.00
8896;DHT22;4484;48.928;10.066;2023-08-08T13:37:22;23.40;90.70
8896;DHT22;4484;48.928;10.066;2023-08-08T13:39:49;23.40;91.10
8896;DHT22;4484;48.928;10.066;2023-08-08T13:42:15;23.50;92.50
8896;DHT22;4484;48.928;10.066;2023-08-08T13:44:42;23.80;93.30
8896;DHT22;4484;48.928;10.066;2023-08-08T13:47:09;24.00;91.50
8896;DHT22;4484;48.928;10.066;2023-08-08T13:49:36;24.20;91.80
8896;DHT22;4484;48.928;10.066;2023-08-08T13:52:03;24.30;91.60
8896;DHT22;4484;48.928;10.066;2023-08-08T13:54:30;24.40;91.10
8896;DHT22;4484;48.928;10.066;2023-08-08T13:56:57;24.60;92.40
8896;DHT22;4484;48.928;10.066;2023-08-08T13:59:24;24.70;91.80
8896;DHT22;4484;48.928;10.066;2023-08-08T14:01:51;24.60;90.60
8896;DHT22;4484;48.928;10.066;2023-08-08T14:04:18;24.50;90.10
8896;DHT22;4484;48.928;10.066;2023-08-08T14:06:46;24.20;88.60
8896;DHT22;4484;48.928;10.066;2023-08-08T14:09:13;24.00;89.00
8896;DHT22;4484;48.928;10.066;2023-08-08T14:11:43;23.90;90.00
8896;DHT22;4484;48.928;10.066;2023-08-08T14:14:10;23.90;89.30
8896;DHT22;4484;48.928;10.066;2023-08-08T14:16:37;23.80;90.40
8896;DHT22;4484;48.928;10.066;2023-08-08T14:19:04;23.90;91.20
8896;DHT22;4484;48.928;10.066;2023-08-08T14:21:31;24.20;89.00
8896;DHT22;4484;48.928;10.066;2023-08-08T14:23:58;24.30;85.50
8896;DHT22;4484;48.928;10.066;2023-08-08T14:26:25;24.20;87.80
8896;DHT22;4484;48.928;10.066;2023-08-08T14:28:52;24.40;91.00
8896;DHT22;4484;48.928;10.066;2023-08-08T14:31:19;24.50;88.80
8896;DHT22;4484;48.928;10.066;2023-08-08T14:33:46;24.40;85.70
8896;DHT22;4484;48.928;10.066;2023-08-08T14:36:14;24.20;82.90
8896;DHT22;4484;48.928;10.066;2023-08-08T14:38:41;23.90;85.70
8896;DHT22;4484;48.928;10.066;2023-08-08T14:41:08;23.60;83.30
8896;DHT22;4484;48.928;10.066;2023-08-08T14:43:35;23.20;86.30
8896;DHT22;4484;48.928;10.066;2023-08-08T14:46:02;22.70;88.20
8896;DHT22;4484;48.928;10.066;2023-08-08T14:48:29;22.50;90.40
8896;DHT22;4484;48.928;10.066;2023-08-08T14:50:56;22.50;91.10
8896;DHT22;4484;48.928;10.066;2023-08-08T14:53:23;22.50;89.60
8896;DHT22;4484;48.928;10.066;2023-08-08T14:55:50;22.60;91.10
8896;DHT22;4484;48.928;10.066;2023-08-08T14:58:17;22.60;90.80
8896;DHT22;4484;48.928;10.066;2023-08-08T15:00:44;22.50;90.50
8896;DHT22;4484;48.928;10.066;2023-08-08T15:03:11;22.40;91.10
8896;DHT22;4484;48.928;10.066;2023-08-08T15:05:40;22.40;91.40
8896;DHT22;4484;48.928;10.066;2023-08-08T15:08:07;22.40;92.80
8896;DHT22;4484;48.928;10.066;2023-08-08T15:10:36;22.20;91.20
8896;DHT22;4484;48.928;10.066;2023-08-08T15:13:04;22.10;90.90
8896;DHT22;4484;48.928;10.066;2023-08-08T15:15:31;22.10;91.10
8896;DHT22;4484;48.928;10.066;2023-08-08T15:17:58;22.20;92.60
8896;DHT22;4484;48.928;10.066;2023-08-08T15:20:25;22.40;92.80
8896;DHT22;4484;48.928;10.066;2023-08-08T15:22:52;22.40;91.60
8896;DHT22;4484;48.928;10.066;2023-08-08T15:25:19;22.50;90.70
8896;DHT22;4484;48.928;10.066;2023-08-08T15:27:46;22.40;92.20
8896;DHT22;4484;48.928;10.066;2023-08-08T15:30:13;22.30;91.70
8896;DHT22;4484;48.928;10.066;2023-08-08T15:32:40;22.10;91.60
8896;DHT22;4484;48.928;10.066;2023-08-08T15:35:07;21.90;91.30
8896;DHT22;4484;48.928;10.066;2023-08-08T15:37:35;21.70;91.30
8896;DHT22;4484;48.928;10.066;2023-08-08T15:40:05;21.40;93.20
8896;DHT22;4484;48.928;10.066;2023-08-08T15:42:32;21.30;92.80
8896;DHT22;4484;48.928;10.066;2023-08-08T15:44:59;21.20;93.00
8896;DHT22;4484;48.928;10.066;2023-08-08T15:47:26;21.20;93.50
8896;DHT22;4484;48.928;10.066;2023-08-08T15:49:53;21.30;94.60
8896;DHT22;4484;48.928;10.066;2023-08-08T15:52:20;21.40;94.30